createdAt,value
2019-03-18T00:00:31.838Z,0
2019-03-18T00:01:31.802Z,0
2019-03-18T00:02:31.776Z,0
2019-03-18T00:03:31.817Z,0
2019-03-18T00:04:31.717Z,0
2019-03-18T00:05:31.675Z,0
2019-03-18T00:06:31.637Z,0
2019-03-18T00:07:31.604Z,0
2019-03-18T00:08:31.582Z,0
2019-03-18T00:09:31.535Z,0
2019-03-18T00:10:31.509Z,0
2019-03-18T00:11:31.473Z,0
2019-03-18T00:12:31.530Z,0
2019-03-18T00:13:31.411Z,0
2019-03-18T00:14:31.384Z,0
2019-03-18T00:15:31.349Z,0
2019-03-18T00:16:31.313Z,0
2019-03-18T00:17:31.289Z,0
2019-03-18T00:18:31.248Z,0
2019-03-18T00:19:31.223Z,0
2019-03-18T00:20:31.189Z,0
2019-03-18T00:21:31.162Z,0
2019-03-18T00:22:30.886Z,0
2019-03-18T00:23:31.091Z,0
2019-03-18T00:24:31.059Z,0
2019-03-18T00:25:31.029Z,0
2019-03-18T00:26:30.998Z,0
2019-03-18T00:27:30.732Z,0
2019-03-18T00:28:30.931Z,0
2019-03-18T00:29:30.992Z,0
2019-03-18T00:30:30.867Z,0
2019-03-18T00:31:30.830Z,0
2019-03-18T00:32:30.808Z,0
2019-03-18T00:33:30.779Z,0
2019-03-18T00:34:30.734Z,0
2019-03-18T00:35:30.700Z,0
2019-03-18T00:36:30.676Z,0
2019-03-18T00:37:30.645Z,0
2019-03-18T00:38:30.608Z,0
2019-03-18T00:39:30.574Z,0
2019-03-18T00:40:30.557Z,0
2019-03-18T00:41:30.281Z,0
2019-03-18T00:42:30.501Z,0
2019-03-18T00:43:30.439Z,0
2019-03-18T00:44:30.418Z,0
2019-03-18T00:45:30.387Z,0
2019-03-18T00:46:30.353Z,0
2019-03-18T00:47:30.316Z,0
2019-03-18T00:48:30.290Z,0
2019-03-18T00:49:30.264Z,0
2019-03-18T00:50:30.258Z,0
2019-03-18T00:51:30.189Z,0
2019-03-18T00:52:30.158Z,0
2019-03-18T00:53:30.207Z,0
2019-03-18T00:54:30.090Z,0
2019-03-18T00:55:30.110Z,0
2019-03-18T00:56:30.029Z,0
2019-03-18T00:57:30.021Z,0
2019-03-18T00:58:29.963Z,0
2019-03-18T00:59:29.938Z,0
2019-03-18T01:00:29.899Z,0
2019-03-18T01:01:29.863Z,0
2019-03-18T01:02:29.830Z,0
2019-03-18T01:03:29.815Z,0
2019-03-18T01:04:29.766Z,0
2019-03-18T01:05:29.743Z,0
2019-03-18T01:06:29.706Z,0
2019-03-18T01:07:29.674Z,0
2019-03-18T01:08:29.641Z,0
2019-03-18T01:09:29.604Z,0
2019-03-18T01:10:29.580Z,0
2019-03-18T01:11:29.546Z,0
2019-03-18T01:12:29.563Z,0
2019-03-18T01:13:29.479Z,0
2019-03-18T01:14:29.458Z,0
2019-03-18T01:15:35.277Z,0
2019-03-18T01:16:29.397Z,0
2019-03-18T01:17:28.882Z,0
2019-03-18T01:18:29.327Z,0
2019-03-18T01:19:29.290Z,0
2019-03-18T01:20:29.261Z,0
2019-03-18T01:21:29.225Z,0
2019-03-18T01:22:29.224Z,0
2019-03-18T01:23:29.157Z,0
2019-03-18T01:24:29.131Z,0
2019-03-18T01:25:29.090Z,0
2019-03-18T01:26:29.065Z,0
2019-03-18T01:27:30.282Z,0
2019-03-18T01:28:29.061Z,0
2019-03-18T01:29:28.969Z,0
2019-03-18T01:30:28.932Z,0
2019-03-18T01:31:28.919Z,0
2019-03-18T01:32:28.675Z,0
2019-03-18T01:33:28.842Z,0
2019-03-18T01:34:28.844Z,0
2019-03-18T01:35:28.826Z,0
2019-03-18T01:36:28.735Z,0
2019-03-18T01:37:28.469Z,0
2019-03-18T01:38:28.678Z,0
2019-03-18T01:39:28.648Z,0
2019-03-18T01:40:28.691Z,0
2019-03-18T01:41:28.605Z,0
2019-03-18T01:42:28.309Z,0
2019-03-18T01:43:28.508Z,0
2019-03-18T01:44:28.482Z,0
2019-03-18T01:45:39.996Z,0
2019-03-18T01:46:28.411Z,0
2019-03-18T01:47:28.380Z,0
2019-03-18T01:48:28.352Z,0
2019-03-18T01:49:28.442Z,0
2019-03-18T01:50:28.289Z,0
2019-03-18T01:51:28.260Z,0
2019-03-18T01:52:28.217Z,0
2019-03-18T01:53:28.199Z,0
2019-03-18T01:54:28.164Z,0
2019-03-18T01:55:28.131Z,0
2019-03-18T01:56:28.094Z,0
2019-03-18T01:57:28.056Z,0
2019-03-18T01:58:28.098Z,0
2019-03-18T01:59:27.999Z,0
2019-03-18T02:00:27.976Z,0
2019-03-18T02:01:27.943Z,0
2019-03-18T02:02:27.907Z,0
2019-03-18T02:03:27.873Z,0
2019-03-18T02:04:27.866Z,0
2019-03-18T02:05:27.800Z,0
2019-03-18T02:06:27.773Z,0
2019-03-18T02:07:27.848Z,0
2019-03-18T02:08:27.720Z,0
2019-03-18T02:09:27.698Z,0
2019-03-18T02:10:27.715Z,0
2019-03-18T02:11:27.624Z,0
2019-03-18T02:12:27.593Z,0
2019-03-18T02:13:27.545Z,0
2019-03-18T02:14:27.515Z,0
2019-03-18T02:15:27.488Z,0
2019-03-18T02:16:27.454Z,0
2019-03-18T02:17:27.420Z,0
2019-03-18T02:18:27.379Z,0
2019-03-18T02:19:27.347Z,0
2019-03-18T02:20:27.357Z,0
2019-03-18T02:21:27.282Z,0
2019-03-18T02:22:27.257Z,0
2019-03-18T02:23:27.231Z,0
2019-03-18T02:24:27.212Z,0
2019-03-18T02:25:27.165Z,0
2019-03-18T02:26:27.132Z,0
2019-03-18T02:27:27.097Z,0
2019-03-18T02:28:27.161Z,0
2019-03-18T02:29:27.051Z,0
2019-03-18T02:30:27.044Z,0
2019-03-18T02:31:26.983Z,0
2019-03-18T02:32:26.972Z,0
2019-03-18T02:33:26.957Z,0
2019-03-18T02:34:26.913Z,0
2019-03-18T02:35:26.855Z,0
2019-03-18T02:36:26.817Z,0
2019-03-18T02:37:26.838Z,0
2019-03-18T02:38:26.817Z,0
2019-03-18T02:39:26.747Z,0
2019-03-18T02:40:26.703Z,0
2019-03-18T02:41:26.685Z,0
2019-03-18T02:42:26.652Z,0
2019-03-18T02:43:26.592Z,0
2019-03-18T02:44:26.574Z,0
2019-03-18T02:45:29.234Z,0
2019-03-18T02:46:26.346Z,0
2019-03-18T02:47:26.222Z,0
2019-03-18T02:48:26.505Z,0
2019-03-18T02:49:26.411Z,0
2019-03-18T02:50:26.386Z,0
2019-03-18T02:51:26.356Z,0
2019-03-18T02:52:26.073Z,0
2019-03-18T02:53:26.304Z,0
2019-03-18T02:54:26.245Z,0
2019-03-18T02:55:25.984Z,0
2019-03-18T02:56:26.187Z,0
2019-03-18T02:57:25.911Z,0
2019-03-18T02:58:26.148Z,0
2019-03-18T02:59:26.096Z,0
2019-03-18T03:00:26.053Z,0
2019-03-18T03:01:26.039Z,0
2019-03-18T03:02:25.996Z,0
2019-03-18T03:03:25.757Z,0
2019-03-18T03:04:26.060Z,0
2019-03-18T03:05:25.457Z,0
2019-03-18T03:06:25.925Z,0
2019-03-18T03:07:25.895Z,0
2019-03-18T03:08:25.813Z,0
2019-03-18T03:09:25.803Z,0
2019-03-18T03:10:25.602Z,0
2019-03-18T03:11:25.761Z,0
2019-03-18T03:12:25.678Z,0
2019-03-18T03:13:25.756Z,0
2019-03-18T03:14:25.626Z,0
2019-03-18T03:15:25.585Z,0
2019-03-18T03:16:33.912Z,0
2019-03-18T03:17:28.922Z,0
2019-03-18T03:18:25.504Z,0
2019-03-18T03:19:25.448Z,0
2019-03-18T03:20:25.424Z,0
2019-03-18T03:21:25.399Z,0
2019-03-18T03:22:25.366Z,0
2019-03-18T03:23:25.335Z,0
2019-03-18T03:24:25.291Z,0
2019-03-18T03:25:29.373Z,0
2019-03-18T03:26:25.244Z,0
2019-03-18T03:27:25.250Z,0
2019-03-18T03:28:25.174Z,0
2019-03-18T03:29:25.189Z,0
2019-03-18T03:30:25.263Z,0
2019-03-18T03:31:25.125Z,0
2019-03-18T03:32:25.132Z,0
2019-03-18T03:33:25.083Z,0
2019-03-18T03:34:25.034Z,0
2019-03-18T03:35:25.151Z,0
2019-03-18T03:36:24.916Z,0
2019-03-18T03:37:24.908Z,0
2019-03-18T03:38:24.844Z,0
2019-03-18T03:39:24.819Z,0
2019-03-18T03:40:24.803Z,0
2019-03-18T03:41:25.744Z,0
2019-03-18T03:42:24.719Z,0
2019-03-18T03:43:24.700Z,0
2019-03-18T03:44:24.679Z,0
2019-03-18T03:45:24.664Z,0
2019-03-18T03:46:24.592Z,0
2019-03-18T03:47:24.696Z,0
2019-03-18T03:48:24.538Z,0
2019-03-18T03:49:24.530Z,0
2019-03-18T03:50:24.465Z,0
2019-03-18T03:51:24.467Z,0
2019-03-18T03:52:24.457Z,0
2019-03-18T03:53:24.367Z,0
2019-03-18T03:54:24.355Z,0
2019-03-18T03:55:24.408Z,0
2019-03-18T03:56:24.337Z,0
2019-03-18T03:57:24.242Z,0
2019-03-18T03:58:24.207Z,0
2019-03-18T03:59:24.206Z,0
2019-03-18T04:00:24.216Z,0
2019-03-18T04:01:24.113Z,0
2019-03-18T04:02:24.098Z,0
2019-03-18T04:03:39.940Z,0
2019-03-18T04:04:24.017Z,0
2019-03-18T04:05:23.750Z,0
2019-03-18T04:06:23.950Z,0
2019-03-18T04:07:23.990Z,0
2019-03-18T04:08:23.904Z,0
2019-03-18T04:09:23.899Z,0
2019-03-18T04:10:23.836Z,0
2019-03-18T04:11:23.827Z,0
2019-03-18T04:12:23.779Z,0
2019-03-18T04:13:23.738Z,0
2019-03-18T04:14:23.725Z,0
2019-03-18T04:15:23.677Z,0
2019-03-18T04:16:23.404Z,0
2019-03-18T04:17:23.375Z,0
2019-03-18T04:18:23.570Z,0
2019-03-18T04:19:23.535Z,0
2019-03-18T04:20:23.523Z,0
2019-03-18T04:21:23.493Z,0
2019-03-18T04:22:23.489Z,0
2019-03-18T04:23:23.418Z,0
2019-03-18T04:24:23.401Z,0
2019-03-18T04:25:23.394Z,0
2019-03-18T04:26:23.089Z,0
2019-03-18T04:27:27.105Z,0
2019-03-18T04:28:23.268Z,0
2019-03-18T04:29:23.308Z,0
2019-03-18T04:30:23.193Z,0
2019-03-18T04:31:23.164Z,0
2019-03-18T04:32:23.125Z,0
2019-03-18T04:33:23.091Z,0
2019-03-18T04:34:23.064Z,0
2019-03-18T04:35:23.043Z,0
2019-03-18T04:36:22.995Z,0
2019-03-18T04:37:22.976Z,0
2019-03-18T04:38:22.933Z,0
2019-03-18T04:39:23.044Z,0
2019-03-18T04:40:22.878Z,0
2019-03-18T04:41:22.830Z,0
2019-03-18T04:42:22.798Z,0
2019-03-18T04:43:22.768Z,0
2019-03-18T04:44:22.733Z,0
2019-03-18T04:45:22.720Z,0
2019-03-18T04:46:22.680Z,0
2019-03-18T04:47:22.647Z,0
2019-03-18T04:48:22.621Z,0
2019-03-18T04:49:22.570Z,0
2019-03-18T04:50:22.547Z,0
2019-03-18T04:51:22.537Z,0
2019-03-18T04:52:22.478Z,0
2019-03-18T04:53:22.450Z,0
2019-03-18T04:54:22.422Z,0
2019-03-18T04:55:22.380Z,0
2019-03-18T04:56:22.385Z,0
2019-03-18T04:57:22.329Z,0
2019-03-18T04:58:22.300Z,0
2019-03-18T04:59:22.256Z,0
2019-03-18T05:00:22.232Z,0
2019-03-18T05:01:22.227Z,0
2019-03-18T05:02:23.909Z,0
2019-03-18T05:03:22.143Z,0
2019-03-18T05:04:22.120Z,0
2019-03-18T05:05:22.074Z,0
2019-03-18T05:06:22.044Z,0
2019-03-18T05:07:22.008Z,4
2019-03-18T05:08:21.973Z,0
2019-03-18T05:09:21.943Z,0
2019-03-18T05:10:21.914Z,4
2019-03-18T05:11:21.882Z,4
2019-03-18T05:12:22.153Z,4
2019-03-18T05:13:21.812Z,4
2019-03-18T05:14:21.785Z,4
2019-03-18T05:15:21.513Z,4
2019-03-18T05:16:21.728Z,8
2019-03-18T05:17:33.610Z,8
2019-03-18T05:18:21.659Z,8
2019-03-18T05:19:21.638Z,12
2019-03-18T05:20:21.606Z,16
2019-03-18T05:21:21.563Z,20
2019-03-18T05:22:21.538Z,20
2019-03-18T05:23:21.505Z,32
2019-03-18T05:24:21.486Z,36
2019-03-18T05:25:21.436Z,44
2019-03-18T05:26:22.432Z,48
2019-03-18T05:27:21.388Z,48
2019-03-18T05:28:21.412Z,44
2019-03-18T05:29:21.310Z,44
2019-03-18T05:30:21.292Z,52
2019-03-18T05:31:21.247Z,48
2019-03-18T05:32:21.217Z,52
2019-03-18T05:33:21.182Z,60
2019-03-18T05:34:21.155Z,64
2019-03-18T05:35:21.127Z,80
2019-03-18T05:36:21.094Z,96
2019-03-18T05:37:21.063Z,112
2019-03-18T05:38:21.065Z,120
2019-03-18T05:39:21.001Z,148
2019-03-18T05:40:20.979Z,156
2019-03-18T05:41:20.975Z,192
2019-03-18T05:42:20.900Z,180
2019-03-18T05:43:20.867Z,156
2019-03-18T05:44:20.839Z,228
2019-03-18T05:45:20.911Z,360
2019-03-18T05:46:20.776Z,432
2019-03-18T05:47:20.738Z,472
2019-03-18T05:48:20.473Z,396
2019-03-18T05:49:20.678Z,392
2019-03-18T05:50:20.668Z,528
2019-03-18T05:51:20.620Z,480
2019-03-18T05:52:20.589Z,484
2019-03-18T05:53:20.552Z,620
2019-03-18T05:54:20.526Z,784
2019-03-18T05:55:20.489Z,788
2019-03-18T05:56:20.265Z,804
2019-03-18T05:57:20.427Z,648
2019-03-18T05:58:20.397Z,620
2019-03-18T05:59:20.380Z,772
2019-03-18T06:00:20.346Z,840
2019-03-18T06:01:20.300Z,880
2019-03-18T06:02:20.274Z,788
2019-03-18T06:03:20.251Z,1220
2019-03-18T06:04:20.231Z,1688
2019-03-18T06:05:20.284Z,2004
2019-03-18T06:06:20.429Z,2208
2019-03-18T06:07:21.130Z,2120
2019-03-18T06:08:20.093Z,1456
2019-03-18T06:09:20.083Z,816
2019-03-18T06:10:20.026Z,584
2019-03-18T06:11:19.992Z,520
2019-03-18T06:12:19.957Z,436
2019-03-18T06:13:20.155Z,472
2019-03-18T06:14:20.802Z,624
2019-03-18T06:15:19.877Z,808
2019-03-18T06:16:19.856Z,948
2019-03-18T06:17:19.819Z,856
2019-03-18T06:18:19.793Z,824
2019-03-18T06:19:19.754Z,924
2019-03-18T06:20:19.718Z,964
2019-03-18T06:21:20.956Z,796
2019-03-18T06:22:19.720Z,884
2019-03-18T06:23:19.384Z,1288
2019-03-18T06:24:19.598Z,1512
2019-03-18T06:25:19.358Z,1876
2019-03-18T06:26:19.595Z,2036
2019-03-18T06:27:19.501Z,2008
2019-03-18T06:28:19.471Z,1732
2019-03-18T06:29:19.659Z,1676
2019-03-18T06:30:19.417Z,2332
2019-03-18T06:31:19.374Z,2776
2019-03-18T06:32:19.339Z,3444
2019-03-18T06:33:19.789Z,2724
2019-03-18T06:34:19.294Z,2620
2019-03-18T06:35:20.568Z,2832
2019-03-18T06:36:19.218Z,3312
2019-03-18T06:37:19.216Z,4268
2019-03-18T06:38:19.389Z,5072
2019-03-18T06:39:19.953Z,6728
2019-03-18T06:40:19.159Z,7508
2019-03-18T06:41:19.071Z,10756
2019-03-18T06:42:21.201Z,13080
2019-03-18T06:43:19.012Z,9420
2019-03-18T06:44:18.982Z,4520
2019-03-18T06:45:19.838Z,3104
2019-03-18T06:46:18.919Z,2948
2019-03-18T06:47:19.015Z,3220
2019-03-18T06:48:18.863Z,3404
2019-03-18T06:49:18.827Z,2992
2019-03-18T06:50:19.858Z,2744
2019-03-18T06:51:19.973Z,3124
2019-03-18T06:52:19.030Z,3780
2019-03-18T06:53:18.711Z,4928
2019-03-18T06:54:19.156Z,6916
2019-03-18T06:55:18.662Z,7444
2019-03-18T06:56:18.626Z,5176
2019-03-18T06:57:18.504Z,4292
2019-03-18T06:58:18.846Z,4528
2019-03-18T06:59:18.957Z,4352
2019-03-18T07:00:18.499Z,3784
2019-03-18T07:01:18.460Z,4664
2019-03-18T07:02:18.438Z,5768
2019-03-18T07:03:18.410Z,6784
2019-03-18T07:04:18.380Z,7704
2019-03-18T07:05:18.351Z,7004
2019-03-18T07:06:18.347Z,7884
2019-03-18T07:07:18.284Z,10540
2019-03-18T07:08:18.291Z,8676
2019-03-18T07:09:18.263Z,6612
2019-03-18T07:10:17.974Z,6816
2019-03-18T07:11:18.171Z,8220
2019-03-18T07:12:18.358Z,8016
2019-03-18T07:13:18.111Z,8444
2019-03-18T07:14:18.077Z,8208
2019-03-18T07:15:18.047Z,7464
2019-03-18T07:16:18.047Z,7760
2019-03-18T07:17:17.993Z,8968
2019-03-18T07:18:25.329Z,7428
2019-03-18T07:19:17.937Z,7068
2019-03-18T07:20:17.723Z,6852
2019-03-18T07:21:19.544Z,6188
2019-03-18T07:22:17.845Z,7008
2019-03-18T07:23:17.807Z,6220
2019-03-18T07:24:17.785Z,6576
2019-03-18T07:25:17.521Z,7300
2019-03-18T07:26:17.718Z,9156
2019-03-18T07:27:17.697Z,7260
2019-03-18T07:28:20.511Z,8256
2019-03-18T07:29:17.635Z,9012
2019-03-18T07:30:17.611Z,8772
2019-03-18T07:31:17.580Z,8720
2019-03-18T07:32:17.604Z,10452
2019-03-18T07:33:17.511Z,8044
2019-03-18T07:34:17.512Z,8588
2019-03-18T07:35:17.460Z,8984
2019-03-18T07:36:17.429Z,10460
2019-03-18T07:37:17.404Z,6236
2019-03-18T07:38:17.372Z,7192
2019-03-18T07:39:17.339Z,9848
2019-03-18T07:40:18.437Z,8040
2019-03-18T07:41:17.518Z,8760
2019-03-18T07:42:17.429Z,7712
2019-03-18T07:43:17.227Z,8724
2019-03-18T07:44:17.190Z,11320
2019-03-18T07:45:20.599Z,10904
2019-03-18T07:46:17.138Z,11792
2019-03-18T07:47:17.115Z,16236
2019-03-18T07:48:32.666Z,12424
2019-03-18T07:49:17.248Z,12148
2019-03-18T07:50:17.015Z,12580
2019-03-18T07:51:16.993Z,13520
2019-03-18T07:52:16.971Z,10452
2019-03-18T07:53:18.249Z,7700
2019-03-18T07:54:16.914Z,7668
2019-03-18T07:55:16.885Z,8464
2019-03-18T07:56:16.378Z,8096
2019-03-18T07:57:16.856Z,8240
2019-03-18T07:58:17.012Z,8408
2019-03-18T07:59:16.841Z,8756
2019-03-18T08:00:16.553Z,9004
2019-03-18T08:01:16.862Z,9044
2019-03-18T08:02:16.711Z,8976
2019-03-18T08:03:16.648Z,9352
2019-03-18T08:04:16.638Z,8208
2019-03-18T08:05:16.603Z,8004
2019-03-18T08:06:16.563Z,9516
2019-03-18T08:07:16.535Z,9148
2019-03-18T08:08:16.551Z,9300
2019-03-18T08:09:17.259Z,9196
2019-03-18T08:10:17.355Z,9056
2019-03-18T08:11:16.413Z,14384
2019-03-18T08:12:16.382Z,17184
2019-03-18T08:13:16.351Z,17408
2019-03-18T08:14:18.475Z,17568
2019-03-18T08:15:16.294Z,18208
2019-03-18T08:16:16.273Z,14940
2019-03-18T08:17:16.235Z,15092
2019-03-18T08:18:16.220Z,15924
2019-03-18T08:19:16.180Z,15588
2019-03-18T08:20:16.166Z,19008
2019-03-18T08:21:16.131Z,16364
2019-03-18T08:22:16.096Z,14520
2019-03-18T08:23:15.841Z,18144
2019-03-18T08:24:16.043Z,15508
2019-03-18T08:25:16.022Z,18080
2019-03-18T08:26:15.992Z,16708
2019-03-18T08:27:15.961Z,16188
2019-03-18T08:28:16.004Z,15664
2019-03-18T08:29:15.905Z,13056
2019-03-18T08:30:15.879Z,11928
2019-03-18T08:31:15.871Z,14136
2019-03-18T08:32:18.774Z,12736
2019-03-18T08:33:15.805Z,13184
2019-03-18T08:34:15.771Z,12872
2019-03-18T08:35:16.946Z,16108
2019-03-18T08:36:15.714Z,12964
2019-03-18T08:37:15.688Z,11168
2019-03-18T08:38:15.656Z,11904
2019-03-18T08:39:15.660Z,12108
2019-03-18T08:40:15.605Z,15876
2019-03-18T08:41:15.570Z,20704
2019-03-18T08:42:15.555Z,19328
2019-03-18T08:43:15.520Z,12932
2019-03-18T08:44:15.491Z,11912
2019-03-18T08:45:17.563Z,15132
2019-03-18T08:46:16.232Z,19520
2019-03-18T08:47:15.440Z,21664
2019-03-18T08:48:15.390Z,19104
2019-03-18T08:49:15.356Z,12580
2019-03-18T08:50:17.089Z,13316
2019-03-18T08:51:15.304Z,13508
2019-03-18T08:52:15.274Z,15824
2019-03-18T08:53:15.256Z,17408
2019-03-18T08:54:15.693Z,18112
2019-03-18T08:55:15.199Z,17472
2019-03-18T08:56:15.169Z,14732
2019-03-18T08:57:15.140Z,17376
2019-03-18T08:58:15.110Z,15892
2019-03-18T08:59:15.082Z,16764
2019-03-18T09:00:15.181Z,17824
2019-03-18T09:01:15.924Z,18080
2019-03-18T09:02:15.010Z,16100
2019-03-18T09:03:14.822Z,18432
2019-03-18T09:04:15.013Z,17760
2019-03-18T09:05:14.941Z,11412
2019-03-18T09:06:14.903Z,13480
2019-03-18T09:07:15.021Z,18080
2019-03-18T09:08:14.845Z,16144
2019-03-18T09:09:14.822Z,13688
2019-03-18T09:10:14.793Z,17856
2019-03-18T09:11:14.856Z,21920
2019-03-18T09:12:14.743Z,20480
2019-03-18T09:13:14.722Z,15420
2019-03-18T09:14:14.461Z,12572
2019-03-18T09:15:14.685Z,16724
2019-03-18T09:16:14.404Z,19680
2019-03-18T09:17:14.619Z,20416
2019-03-18T09:18:14.590Z,18528
2019-03-18T09:19:16.363Z,13184
2019-03-18T09:20:14.538Z,10696
2019-03-18T09:21:14.502Z,12772
2019-03-18T09:22:14.473Z,16724
2019-03-18T09:23:14.451Z,21312
2019-03-18T09:24:14.423Z,22688
2019-03-18T09:25:17.250Z,19680
2019-03-18T09:26:16.818Z,16176
2019-03-18T09:27:14.340Z,15652
2019-03-18T09:28:14.317Z,17824
2019-03-18T09:29:14.287Z,18848
2019-03-18T09:30:14.366Z,19904
2019-03-18T09:31:14.462Z,21408
2019-03-18T09:32:14.226Z,22912
2019-03-18T09:33:14.187Z,23616
2019-03-18T09:34:14.163Z,22400
2019-03-18T09:35:15.342Z,17760
2019-03-18T09:36:13.877Z,16360
2019-03-18T09:37:14.083Z,17188
2019-03-18T09:38:14.060Z,14736
2019-03-18T09:39:14.044Z,12284
2019-03-18T09:40:14.164Z,11940
2019-03-18T09:41:14.014Z,11788
2019-03-18T09:42:13.968Z,13072
2019-03-18T09:43:13.933Z,13696
2019-03-18T09:44:13.909Z,14096
2019-03-18T09:45:13.877Z,15044
2019-03-18T09:46:13.853Z,18240
2019-03-18T09:47:13.911Z,21696
2019-03-18T09:48:13.804Z,24320
2019-03-18T09:49:26.233Z,22752
2019-03-18T09:50:13.754Z,23776
2019-03-18T09:51:16.692Z,22176
2019-03-18T09:52:13.735Z,18144
2019-03-18T09:53:13.724Z,15928
2019-03-18T09:54:13.926Z,13760
2019-03-18T09:55:13.781Z,14148
2019-03-18T09:56:13.599Z,16504
2019-03-18T09:57:24.971Z,19168
2019-03-18T09:58:13.551Z,17216
2019-03-18T09:59:14.016Z,12968
2019-03-18T10:00:14.821Z,8632
2019-03-18T10:01:13.473Z,5700
2019-03-18T10:02:13.447Z,4244
2019-03-18T10:03:13.484Z,3584
2019-03-18T10:04:14.594Z,3480
2019-03-18T10:05:13.371Z,3556
2019-03-18T10:06:13.351Z,3556
2019-03-18T10:07:13.310Z,3784
2019-03-18T10:08:13.303Z,3996
2019-03-18T10:09:13.280Z,4040
2019-03-18T10:10:13.231Z,3996
2019-03-18T10:11:13.209Z,4292
2019-03-18T10:12:13.183Z,5020
2019-03-18T10:13:13.149Z,5592
2019-03-18T10:14:13.139Z,6264
2019-03-18T10:15:13.141Z,6860
2019-03-18T10:16:13.081Z,7784
2019-03-18T10:17:17.150Z,7960
2019-03-18T10:18:13.823Z,7216
2019-03-18T10:19:13.005Z,6616
2019-03-18T10:20:13.699Z,6016
2019-03-18T10:21:12.944Z,5844
2019-03-18T10:22:12.908Z,6508
2019-03-18T10:23:12.889Z,9040
2019-03-18T10:24:12.930Z,9112
2019-03-18T10:25:12.852Z,8648
2019-03-18T10:26:12.801Z,8608
2019-03-18T10:27:12.772Z,8196
2019-03-18T10:28:12.745Z,8264
2019-03-18T10:29:12.729Z,8292
2019-03-18T10:30:12.699Z,8432
2019-03-18T10:31:12.660Z,8616
2019-03-18T10:32:12.631Z,8972
2019-03-18T10:33:12.618Z,9504
2019-03-18T10:34:12.658Z,9436
2019-03-18T10:35:12.634Z,9468
2019-03-18T10:36:12.532Z,9336
2019-03-18T10:37:12.504Z,10344
2019-03-18T10:38:12.471Z,12300
2019-03-18T10:39:12.448Z,13980
2019-03-18T10:40:12.422Z,13496
2019-03-18T10:41:12.386Z,11892
2019-03-18T10:42:12.365Z,11532
2019-03-18T10:43:12.330Z,11976
2019-03-18T10:44:12.303Z,13220
2019-03-18T10:45:12.282Z,16568
2019-03-18T10:46:12.251Z,21024
2019-03-18T10:47:12.226Z,21344
2019-03-18T10:48:12.197Z,17760
2019-03-18T10:49:12.169Z,14320
2019-03-18T10:50:12.148Z,12896
2019-03-18T10:51:12.118Z,15512
2019-03-18T10:52:11.892Z,18656
2019-03-18T10:53:12.257Z,18912
2019-03-18T10:54:12.081Z,18592
2019-03-18T10:55:12.064Z,19648
2019-03-18T10:56:14.957Z,20448
2019-03-18T10:57:11.979Z,20480
2019-03-18T10:58:11.698Z,22240
2019-03-18T10:59:11.923Z,23712
2019-03-18T11:00:11.889Z,25248
2019-03-18T11:01:11.495Z,24416
2019-03-18T11:02:11.834Z,23456
2019-03-18T11:03:11.888Z,20576
2019-03-18T11:04:11.787Z,19040
2019-03-18T11:05:13.087Z,20320
2019-03-18T11:06:11.762Z,22048
2019-03-18T11:07:11.712Z,21664
2019-03-18T11:08:11.689Z,20256
2019-03-18T11:09:11.671Z,20160
2019-03-18T11:10:14.784Z,20256
2019-03-18T11:11:11.616Z,18176
2019-03-18T11:12:11.589Z,15396
2019-03-18T11:13:11.465Z,13696
2019-03-18T11:14:13.257Z,12444
2019-03-18T11:15:12.474Z,11668
2019-03-18T11:16:11.495Z,11780
2019-03-18T11:17:11.468Z,13836
2019-03-18T11:18:11.568Z,16304
2019-03-18T11:19:11.224Z,17444
2019-03-18T11:20:11.450Z,17188
2019-03-18T11:21:11.255Z,16568
2019-03-18T11:22:11.104Z,15392
2019-03-18T11:23:11.325Z,15184
2019-03-18T11:24:11.105Z,16664
2019-03-18T11:25:11.575Z,18432
2019-03-18T11:26:11.251Z,16860
2019-03-18T11:27:11.256Z,15080
2019-03-18T11:28:11.203Z,16136
2019-03-18T11:29:12.961Z,19584
2019-03-18T11:30:11.137Z,19328
2019-03-18T11:31:11.113Z,16776
2019-03-18T11:32:11.090Z,16492
2019-03-18T11:33:11.072Z,19488
2019-03-18T11:34:11.042Z,21696
2019-03-18T11:35:11.022Z,22016
2019-03-18T11:36:10.975Z,21568
2019-03-18T11:37:11.117Z,20160
2019-03-18T11:38:10.952Z,16512
2019-03-18T11:39:10.762Z,13392
2019-03-18T11:40:10.898Z,14508
2019-03-18T11:41:10.873Z,16456
2019-03-18T11:42:10.852Z,17004
2019-03-18T11:43:10.823Z,16108
2019-03-18T11:44:10.802Z,15716
2019-03-18T11:45:12.929Z,17568
2019-03-18T11:46:10.749Z,21632
2019-03-18T11:47:10.725Z,23616
2019-03-18T11:48:10.466Z,22816
2019-03-18T11:49:10.674Z,20032
2019-03-18T11:50:18.317Z,18432
2019-03-18T11:51:10.626Z,16956
2019-03-18T11:52:10.612Z,15252
2019-03-18T11:53:21.397Z,14672
2019-03-18T11:54:10.352Z,15032
2019-03-18T11:55:10.539Z,15456
2019-03-18T11:56:10.534Z,15728
2019-03-18T11:57:10.489Z,16920
2019-03-18T11:58:10.457Z,19776
2019-03-18T11:59:10.431Z,21440
2019-03-18T12:00:10.429Z,22240
2019-03-18T12:01:10.378Z,20064
2019-03-18T12:02:11.613Z,16420
2019-03-18T12:03:10.566Z,12252
2019-03-18T12:04:10.311Z,8472
2019-03-18T12:05:10.277Z,6076
2019-03-18T12:06:10.023Z,5428
2019-03-18T12:07:10.237Z,7268
2019-03-18T12:08:10.228Z,11996
2019-03-18T12:09:10.263Z,18528
2019-03-18T12:10:10.159Z,23584
2019-03-18T12:11:10.131Z,25248
2019-03-18T12:12:10.108Z,24928
2019-03-18T12:13:09.925Z,24032
2019-03-18T12:14:10.064Z,23840
2019-03-18T12:15:10.616Z,24224
2019-03-18T12:16:10.019Z,24928
2019-03-18T12:17:09.980Z,25056
2019-03-18T12:18:10.602Z,25120
2019-03-18T12:19:09.928Z,24832
2019-03-18T12:20:09.921Z,23904
2019-03-18T12:21:09.890Z,22944
2019-03-18T12:22:11.052Z,20448
2019-03-18T12:23:09.836Z,18720
2019-03-18T12:24:09.561Z,17288
2019-03-18T12:25:09.780Z,16064
2019-03-18T12:26:09.752Z,14948
2019-03-18T12:27:09.492Z,14244
2019-03-18T12:28:12.451Z,13904
2019-03-18T12:29:09.676Z,14464
2019-03-18T12:30:09.656Z,15316
2019-03-18T12:31:09.639Z,15468
2019-03-18T12:32:09.599Z,14760
2019-03-18T12:33:09.579Z,13108
2019-03-18T12:34:09.555Z,9856
2019-03-18T12:35:09.530Z,8104
2019-03-18T12:36:09.501Z,7668
2019-03-18T12:37:09.486Z,7632
2019-03-18T12:38:09.446Z,7416
2019-03-18T12:39:09.421Z,6736
2019-03-18T12:40:09.406Z,7092
2019-03-18T12:41:09.455Z,6984
2019-03-18T12:42:09.358Z,6928
2019-03-18T12:43:09.342Z,6924
2019-03-18T12:44:09.293Z,6992
2019-03-18T12:45:11.296Z,7104
2019-03-18T12:46:09.237Z,7160
2019-03-18T12:47:09.219Z,7188
2019-03-18T12:48:09.191Z,7288
2019-03-18T12:49:09.171Z,7400
2019-03-18T12:50:09.140Z,7564
2019-03-18T12:51:09.118Z,7748
2019-03-18T12:52:09.085Z,7992
2019-03-18T12:53:09.069Z,8376
2019-03-18T12:54:09.035Z,8864
2019-03-18T12:55:09.007Z,10228
2019-03-18T12:56:08.744Z,11648
2019-03-18T12:57:08.961Z,10680
2019-03-18T12:58:08.946Z,9800
2019-03-18T12:59:08.898Z,9560
2019-03-18T13:00:08.666Z,9264
2019-03-18T13:01:20.676Z,9952
2019-03-18T13:02:10.492Z,9920
2019-03-18T13:03:10.095Z,10684
2019-03-18T13:04:10.137Z,10628
2019-03-18T13:05:10.612Z,10176
2019-03-18T13:06:10.721Z,10132
2019-03-18T13:07:09.939Z,9776
2019-03-18T13:08:10.419Z,8908
2019-03-18T13:09:08.643Z,9756
2019-03-18T13:10:08.628Z,9984
2019-03-18T13:11:08.696Z,10324
2019-03-18T13:12:08.562Z,10900
2019-03-18T13:13:08.549Z,11560
2019-03-18T13:14:08.350Z,12016
2019-03-18T13:15:08.488Z,12416
2019-03-18T13:16:08.477Z,13424
2019-03-18T13:17:08.434Z,13748
2019-03-18T13:18:08.534Z,13844
2019-03-18T13:19:08.389Z,13308
2019-03-18T13:20:08.359Z,13844
2019-03-18T13:21:15.017Z,14692
2019-03-18T13:22:08.311Z,15336
2019-03-18T13:23:08.288Z,16556
2019-03-18T13:24:08.259Z,17292
2019-03-18T13:25:08.236Z,17220
2019-03-18T13:26:08.214Z,17664
2019-03-18T13:27:08.208Z,17600
2019-03-18T13:28:08.159Z,16860
2019-03-18T13:29:08.134Z,15488
2019-03-18T13:30:08.122Z,13928
2019-03-18T13:31:08.084Z,13700
2019-03-18T13:32:08.161Z,15332
2019-03-18T13:33:08.040Z,18432
2019-03-18T13:34:08.012Z,19392
2019-03-18T13:35:07.986Z,20480
2019-03-18T13:36:07.964Z,20448
2019-03-18T13:37:07.932Z,19936
2019-03-18T13:38:07.684Z,19072
2019-03-18T13:39:07.889Z,18496
2019-03-18T13:40:07.931Z,17236
2019-03-18T13:41:07.860Z,16180
2019-03-18T13:42:07.817Z,16152
2019-03-18T13:43:07.785Z,17344